sensor_id;sensor_type;location;lat;lon;timestamp;P1;durP1;ratioP1;P2;durP2;ratioP2
62572;SDS011;48626;51.678;5.806;2023-10-09T00:01:49;35.72;;;17.27;;
62572;SDS011;48626;51.678;5.806;2023-10-09T00:04:16;40.45;;;17.73;;
62572;SDS011;48626;51.678;5.806;2023-10-09T00:06:43;41.45;;;18.40;;
62572;SDS011;48626;51.678;5.806;2023-10-09T00:09:09;39.67;;;18.63;;
62572;SDS011;48626;51.678;5.806;2023-10-09T00:11:42;36.40;;;18.08;;
62572;SDS011;48626;51.678;5.806;2023-10-09T00:14:09;34.45;;;17.70;;
62572;SDS011;48626;51.678;5.806;2023-10-09T00:16:40;36.63;;;17.58;;
62572;SDS011;48626;51.678;5.806;2023-10-09T00:19:13;46.65;;;18.20;;
62572;SDS011;48626;51.678;5.806;2023-10-09T00:21:42;32.75;;;17.65;;
62572;SDS011;48626;51.678;5.806;2023-10-09T00:24:11;37.42;;;18.25;;
62572;SDS011;48626;51.678;5.806;2023-10-09T00:26:46;35.97;;;17.33;;
62572;SDS011;48626;51.678;5.806;2023-10-09T00:29:13;38.35;;;17.48;;
62572;SDS011;48626;51.678;5.806;2023-10-09T00:31:51;40.65;;;17.63;;
62572;SDS011;48626;51.678;5.806;2023-10-09T00:34:31;34.05;;;17.23;;
62572;SDS011;48626;51.678;5.806;2023-10-09T00:37:04;35.28;;;17.08;;
62572;SDS011;48626;51.678;5.806;2023-10-09T00:39:35;36.90;;;18.80;;
62572;SDS011;48626;51.678;5.806;2023-10-09T00:42:01;33.90;;;18.17;;
62572;SDS011;48626;51.678;5.806;2023-10-09T00:44:28;30.95;;;17.33;;
62572;SDS011;48626;51.678;5.806;2023-10-09T00:47:07;37.35;;;17.42;;
62572;SDS011;48626;51.678;5.806;2023-10-09T00:49:49;39.72;;;17.85;;
62572;SDS011;48626;51.678;5.806;2023-10-09T00:52:24;36.10;;;18.08;;
62572;SDS011;48626;51.678;5.806;2023-10-09T00:57:38;36.67;;;17.85;;
62572;SDS011;48626;51.678;5.806;2023-10-09T01:00:21;38.33;;;17.80;;
62572;SDS011;48626;51.678;5.806;2023-10-09T01:03:05;37.42;;;17.08;;
62572;SDS011;48626;51.678;5.806;2023-10-09T01:06:04;42.75;;;18.40;;
62572;SDS011;48626;51.678;5.806;2023-10-09T01:08:35;38.33;;;17.83;;
62572;SDS011;48626;51.678;5.806;2023-10-09T01:11:07;38.45;;;19.10;;
62572;SDS011;48626;51.678;5.806;2023-10-09T01:13:41;43.95;;;18.98;;
62572;SDS011;48626;51.678;5.806;2023-10-09T01:16:13;33.92;;;17.35;;
62572;SDS011;48626;51.678;5.806;2023-10-09T01:18:46;38.97;;;18.10;;
62572;SDS011;48626;51.678;5.806;2023-10-09T01:21:14;34.38;;;17.67;;
62572;SDS011;48626;51.678;5.806;2023-10-09T01:23:46;37.67;;;18.17;;
62572;SDS011;48626;51.678;5.806;2023-10-09T01:26:27;34.28;;;17.92;;
62572;SDS011;48626;51.678;5.806;2023-10-09T01:31:41;33.13;;;17.88;;
62572;SDS011;48626;51.678;5.806;2023-10-09T01:34:23;37.33;;;18.00;;
62572;SDS011;48626;51.678;5.806;2023-10-09T01:36:57;35.67;;;18.52;;
62572;SDS011;48626;51.678;5.806;2023-10-09T01:39:25;35.25;;;18.27;;
62572;SDS011;48626;51.678;5.806;2023-10-09T01:42:05;37.05;;;18.23;;
62572;SDS011;48626;51.678;5.806;2023-10-09T01:44:31;39.50;;;19.13;;
62572;SDS011;48626;51.678;5.806;2023-10-09T01:47:04;38.80;;;19.83;;
62572;SDS011;48626;51.678;5.806;2023-10-09T01:49:36;33.22;;;18.17;;
62572;SDS011;48626;51.678;5.806;2023-10-09T01:52:06;36.50;;;18.08;;
62572;SDS011;48626;51.678;5.806;2023-10-09T01:54:37;34.53;;;17.77;;
62572;SDS011;48626;51.678;5.806;2023-10-09T01:57:07;33.67;;;16.70;;
62572;SDS011;48626;51.678;5.806;2023-10-09T01:59:41;35.63;;;17.98;;
62572;SDS011;48626;51.678;5.806;2023-10-09T02:02:13;39.60;;;18.65;;
62572;SDS011;48626;51.678;5.806;2023-10-09T02:05:00;38.75;;;18.05;;
62572;SDS011;48626;51.678;5.806;2023-10-09T02:07:39;40.22;;;17.65;;
62572;SDS011;48626;51.678;5.806;2023-10-09T02:10:12;36.30;;;17.45;;
62572;SDS011;48626;51.678;5.806;2023-10-09T02:12:56;36.55;;;18.13;;
62572;SDS011;48626;51.678;5.806;2023-10-09T02:15:27;37.60;;;18.15;;
62572;SDS011;48626;51.678;5.806;2023-10-09T02:18:25;40.08;;;17.80;;
62572;SDS011;48626;51.678;5.806;2023-10-09T02:21:05;33.45;;;18.05;;
62572;SDS011;48626;51.678;5.806;2023-10-09T02:23:33;38.25;;;17.42;;
62572;SDS011;48626;51.678;5.806;2023-10-09T02:26:15;33.92;;;17.27;;
62572;SDS011;48626;51.678;5.806;2023-10-09T02:28:44;34.00;;;18.52;;
62572;SDS011;48626;51.678;5.806;2023-10-09T02:31:23;34.58;;;18.35;;
62572;SDS011;48626;51.678;5.806;2023-10-09T02:34:00;33.47;;;17.30;;
62572;SDS011;48626;51.678;5.806;2023-10-09T02:36:30;36.38;;;17.40;;
62572;SDS011;48626;51.678;5.806;2023-10-09T02:38:56;36.17;;;17.70;;
62572;SDS011;48626;51.678;5.806;2023-10-09T02:41:21;35.42;;;18.85;;
62572;SDS011;48626;51.678;5.806;2023-10-09T02:43:53;37.35;;;18.00;;
62572;SDS011;48626;51.678;5.806;2023-10-09T02:46:20;35.88;;;18.15;;
62572;SDS011;48626;51.678;5.806;2023-10-09T02:48:54;36.35;;;18.33;;
62572;SDS011;48626;51.678;5.806;2023-10-09T02:51:23;40.63;;;18.73;;
62572;SDS011;48626;51.678;5.806;2023-10-09T02:53:53;29.85;;;17.20;;
62572;SDS011;48626;51.678;5.806;2023-10-09T02:56:21;35.45;;;18.65;;
62572;SDS011;48626;51.678;5.806;2023-10-09T02:58:58;30.33;;;17.63;;
62572;SDS011;48626;51.678;5.806;2023-10-09T03:01:31;33.58;;;18.15;;
62572;SDS011;48626;51.678;5.806;2023-10-09T03:03:56;33.85;;;18.13;;
62572;SDS011;48626;51.678;5.806;2023-10-09T03:06:26;31.80;;;17.23;;
62572;SDS011;48626;51.678;5.806;2023-10-09T03:08:56;41.33;;;18.83;;
62572;SDS011;48626;51.678;5.806;2023-10-09T03:11:22;34.70;;;17.52;;
62572;SDS011;48626;51.678;5.806;2023-10-09T03:13:48;32.22;;;17.48;;
62572;SDS011;48626;51.678;5.806;2023-10-09T03:16:14;33.70;;;17.63;;
62572;SDS011;48626;51.678;5.806;2023-10-09T03:18:41;34.20;;;18.25;;
62572;SDS011;48626;51.678;5.806;2023-10-09T03:21:07;32.13;;;18.02;;
62572;SDS011;48626;51.678;5.806;2023-10-09T03:23:34;37.88;;;18.33;;
62572;SDS011;48626;51.678;5.806;2023-10-09T03:26:00;33.17;;;18.25;;
62572;SDS011;48626;51.678;5.806;2023-10-09T03:28:25;39.13;;;18.73;;
62572;SDS011;48626;51.678;5.806;2023-10-09T03:30:51;34.38;;;17.77;;
62572;SDS011;48626;51.678;5.806;2023-10-09T03:33:18;36.17;;;18.30;;
62572;SDS011;48626;51.678;5.806;2023-10-09T03:35:44;38.25;;;18.83;;
62572;SDS011;48626;51.678;5.806;2023-10-09T03:38:09;33.28;;;18.52;;
62572;SDS011;48626;51.678;5.806;2023-10-09T03:40:42;36.47;;;19.10;;
62572;SDS011;48626;51.678;5.806;2023-10-09T03:43:11;37.85;;;18.00;;
62572;SDS011;48626;51.678;5.806;2023-10-09T03:45:37;38.92;;;18.67;;
62572;SDS011;48626;51.678;5.806;2023-10-09T03:48:04;32.90;;;19.00;;
62572;SDS011;48626;51.678;5.806;2023-10-09T03:50:33;38.90;;;18.90;;
62572;SDS011;48626;51.678;5.806;2023-10-09T03:53:02;35.47;;;18.05;;
62572;SDS011;48626;51.678;5.806;2023-10-09T03:55:36;40.83;;;18.70;;
62572;SDS011;48626;51.678;5.806;2023-10-09T03:58:08;31.88;;;18.98;;
62572;SDS011;48626;51.678;5.806;2023-10-09T04:00:38;41.75;;;19.15;;
62572;SDS011;48626;51.678;5.806;2023-10-09T04:03:14;34.63;;;18.77;;
62572;SDS011;48626;51.678;5.806;2023-10-09T04:05:41;38.17;;;18.20;;
62572;SDS011;48626;51.678;5.806;2023-10-09T04:08:08;32.03;;;18.40;;
62572;SDS011;48626;51.678;5.806;2023-10-09T04:10:44;38.65;;;19.13;;
62572;SDS011;48626;51.678;5.806;2023-10-09T04:13:19;33.50;;;17.65;;
62572;SDS011;48626;51.678;5.806;2023-10-09T04:15:49;35.30;;;19.55;;
62572;SDS011;48626;51.678;5.806;2023-10-09T04:18:17;32.85;;;17.83;;
62572;SDS011;48626;51.678;5.806;2023-10-09T04:20:53;33.83;;;17.83;;
62572;SDS011;48626;51.678;5.806;2023-10-09T04:23:37;36.65;;;18.45;;
62572;SDS011;48626;51.678;5.806;2023-10-09T04:26:23;34.40;;;19.00;;
62572;SDS011;48626;51.678;5.806;2023-10-09T04:28:50;34.83;;;17.92;;
62572;SDS011;48626;51.678;5.806;2023-10-09T04:31:18;36.58;;;18.88;;
62572;SDS011;48626;51.678;5.806;2023-10-09T04:33:46;40.05;;;19.05;;
62572;SDS011;48626;51.678;5.806;2023-10-09T04:36:48;38.10;;;19.20;;
62572;SDS011;48626;51.678;5.806;2023-10-09T04:39:27;38.47;;;18.95;;
62572;SDS011;48626;51.678;5.806;2023-10-09T04:41:56;36.03;;;18.40;;
62572;SDS011;48626;51.678;5.806;2023-10-09T04:44:41;36.95;;;18.08;;
62572;SDS011;48626;51.678;5.806;2023-10-09T04:47:26;37.45;;;18.65;;
62572;SDS011;48626;51.678;5.806;2023-10-09T04:50:01;35.65;;;18.35;;
62572;SDS011;48626;51.678;5.806;2023-10-09T04:52:39;38.78;;;19.58;;
62572;SDS011;48626;51.678;5.806;2023-10-09T04:55:05;43.17;;;19.38;;
62572;SDS011;48626;51.678;5.806;2023-10-09T05:00:07;44.42;;;19.90;;
62572;SDS011;48626;51.678;5.806;2023-10-09T05:02:51;30.70;;;18.13;;
62572;SDS011;48626;51.678;5.806;2023-10-09T05:05:35;35.20;;;17.98;;
62572;SDS011;48626;51.678;5.806;2023-10-09T05:08:06;40.70;;;17.95;;
62572;SDS011;48626;51.678;5.806;2023-10-09T05:10:48;34.58;;;17.65;;
62572;SDS011;48626;51.678;5.806;2023-10-09T05:16:05;34.42;;;18.55;;
62572;SDS011;48626;51.678;5.806;2023-10-09T05:18:47;43.80;;;18.80;;
62572;SDS011;48626;51.678;5.806;2023-10-09T05:21:29;41.33;;;19.58;;
62572;SDS011;48626;51.678;5.806;2023-10-09T05:23:58;39.53;;;20.10;;
62572;SDS011;48626;51.678;5.806;2023-10-09T05:26:40;38.40;;;18.50;;
62572;SDS011;48626;51.678;5.806;2023-10-09T05:29:13;41.58;;;19.58;;
62572;SDS011;48626;51.678;5.806;2023-10-09T05:31:59;42.30;;;20.48;;
62572;SDS011;48626;51.678;5.806;2023-10-09T05:34:37;38.88;;;19.92;;
62572;SDS011;48626;51.678;5.806;2023-10-09T05:37:22;38.45;;;19.08;;
62572;SDS011;48626;51.678;5.806;2023-10-09T05:39:51;37.42;;;20.08;;
62572;SDS011;48626;51.678;5.806;2023-10-09T05:45:02;37.42;;;18.77;;
62572;SDS011;48626;51.678;5.806;2023-10-09T05:47:43;33.20;;;18.45;;
62572;SDS011;48626;51.678;5.806;2023-10-09T05:50:25;36.65;;;18.90;;
62572;SDS011;48626;51.678;5.806;2023-10-09T05:52:55;34.95;;;17.92;;
62572;SDS011;48626;51.678;5.806;2023-10-09T05:55:30;41.47;;;19.00;;
62572;SDS011;48626;51.678;5.806;2023-10-09T05:58:25;31.90;;;18.17;;
62572;SDS011;48626;51.678;5.806;2023-10-09T06:01:09;34.75;;;18.50;;
62572;SDS011;48626;51.678;5.806;2023-10-09T06:03:53;38.47;;;19.05;;
62572;SDS011;48626;51.678;5.806;2023-10-09T06:06:22;36.85;;;19.08;;
62572;SDS011;48626;51.678;5.806;2023-10-09T06:09:07;44.58;;;18.80;;
62572;SDS011;48626;51.678;5.806;2023-10-09T06:11:39;36.92;;;19.65;;
62572;SDS011;48626;51.678;5.806;2023-10-09T06:14:06;33.30;;;18.80;;
62572;SDS011;48626;51.678;5.806;2023-10-09T06:16:35;30.35;;;18.35;;
62572;SDS011;48626;51.678;5.806;2023-10-09T06:19:12;38.10;;;18.85;;
62572;SDS011;48626;51.678;5.806;2023-10-09T06:21:44;44.72;;;19.42;;
62572;SDS011;48626;51.678;5.806;2023-10-09T06:24:28;38.90;;;18.65;;
62572;SDS011;48626;51.678;5.806;2023-10-09T06:27:21;36.40;;;19.55;;
62572;SDS011;48626;51.678;5.806;2023-10-09T06:29:57;42.75;;;19.60;;
62572;SDS011;48626;51.678;5.806;2023-10-09T06:32:39;36.03;;;19.00;;
62572;SDS011;48626;51.678;5.806;2023-10-09T06:35:34;39.72;;;18.90;;
62572;SDS011;48626;51.678;5.806;2023-10-09T06:38:01;35.17;;;19.20;;
62572;SDS011;48626;51.678;5.806;2023-10-09T06:40:27;34.72;;;19.48;;
62572;SDS011;48626;51.678;5.806;2023-10-09T06:43:12;39.83;;;18.95;;
62572;SDS011;48626;51.678;5.806;2023-10-09T06:45:50;37.15;;;19.20;;
62572;SDS011;48626;51.678;5.806;2023-10-09T06:48:22;41.13;;;18.80;;
62572;SDS011;48626;51.678;5.806;2023-10-09T06:51:03;39.08;;;19.30;;
62572;SDS011;48626;51.678;5.806;2023-10-09T06:53:38;32.83;;;19.42;;
62572;SDS011;48626;51.678;5.806;2023-10-09T06:56:19;45.42;;;20.33;;
62572;SDS011;48626;51.678;5.806;2023-10-09T06:59:11;35.80;;;19.05;;
62572;SDS011;48626;51.678;5.806;2023-10-09T07:01:42;40.63;;;19.63;;
62572;SDS011;48626;51.678;5.806;2023-10-09T07:04:09;38.60;;;19.67;;
62572;SDS011;48626;51.678;5.806;2023-10-09T07:06:48;42.92;;;21.20;;
62572;SDS011;48626;51.678;5.806;2023-10-09T07:09:15;41.25;;;20.45;;
62572;SDS011;48626;51.678;5.806;2023-10-09T07:11:47;39.13;;;19.60;;
62572;SDS011;48626;51.678;5.806;2023-10-09T07:14:15;40.35;;;20.88;;
62572;SDS011;48626;51.678;5.806;2023-10-09T07:17:03;42.65;;;20.88;;
62572;SDS011;48626;51.678;5.806;2023-10-09T07:19:41;44.88;;;20.90;;
62572;SDS011;48626;51.678;5.806;2023-10-09T07:22:10;43.33;;;20.55;;
62572;SDS011;48626;51.678;5.806;2023-10-09T07:25:03;43.25;;;21.25;;
62572;SDS011;48626;51.678;5.806;2023-10-09T07:27:40;41.90;;;20.35;;
62572;SDS011;48626;51.678;5.806;2023-10-09T07:30:12;40.65;;;21.10;;
62572;SDS011;48626;51.678;5.806;2023-10-09T07:33:07;48.53;;;20.88;;
62572;SDS011;48626;51.678;5.806;2023-10-09T07:35:36;49.15;;;21.73;;
62572;SDS011;48626;51.678;5.806;2023-10-09T07:38:19;38.80;;;21.40;;
62572;SDS011;48626;51.678;5.806;2023-10-09T07:41:00;45.10;;;22.23;;
62572;SDS011;48626;51.678;5.806;2023-10-09T07:43:31;39.47;;;21.20;;
62572;SDS011;48626;51.678;5.806;2023-10-09T07:46:13;40.45;;;21.02;;
62572;SDS011;48626;51.678;5.806;2023-10-09T07:48:55;44.35;;;21.85;;
62572;SDS011;48626;51.678;5.806;2023-10-09T07:51:22;41.35;;;20.50;;
62572;SDS011;48626;51.678;5.806;2023-10-09T07:53:52;45.80;;;21.67;;
62572;SDS011;48626;51.678;5.806;2023-10-09T08:01:35;41.13;;;21.05;;
62572;SDS011;48626;51.678;5.806;2023-10-09T08:04:24;40.67;;;20.63;;
62572;SDS011;48626;51.678;5.806;2023-10-09T08:07:06;45.00;;;21.10;;
62572;SDS011;48626;51.678;5.806;2023-10-09T08:09:44;48.95;;;21.05;;
62572;SDS011;48626;51.678;5.806;2023-10-09T08:12:36;42.97;;;21.58;;
62572;SDS011;48626;51.678;5.806;2023-10-09T08:15:14;51.38;;;23.58;;
62572;SDS011;48626;51.678;5.806;2023-10-09T08:17:51;41.92;;;21.63;;
62572;SDS011;48626;51.678;5.806;2023-10-09T08:20:39;46.05;;;22.67;;
62572;SDS011;48626;51.678;5.806;2023-10-09T08:23:23;54.50;;;22.85;;
62572;SDS011;48626;51.678;5.806;2023-10-09T08:26:09;49.08;;;22.52;;
62572;SDS011;48626;51.678;5.806;2023-10-09T08:28:38;46.28;;;23.13;;
62572;SDS011;48626;51.678;5.806;2023-10-09T08:31:08;45.22;;;23.10;;
62572;SDS011;48626;51.678;5.806;2023-10-09T08:34:13;47.53;;;22.38;;
62572;SDS011;48626;51.678;5.806;2023-10-09T08:36:49;44.65;;;22.40;;
62572;SDS011;48626;51.678;5.806;2023-10-09T08:39:21;45.03;;;22.55;;
62572;SDS011;48626;51.678;5.806;2023-10-09T08:41:53;44.20;;;22.23;;
62572;SDS011;48626;51.678;5.806;2023-10-09T08:44:23;49.63;;;22.20;;
62572;SDS011;48626;51.678;5.806;2023-10-09T08:46:51;48.85;;;23.05;;
62572;SDS011;48626;51.678;5.806;2023-10-09T08:49:19;49.60;;;23.38;;
62572;SDS011;48626;51.678;5.806;2023-10-09T08:51:46;46.70;;;22.50;;
62572;SDS011;48626;51.678;5.806;2023-10-09T08:54:13;49.10;;;22.40;;
62572;SDS011;48626;51.678;5.806;2023-10-09T08:56:40;48.05;;;23.25;;
62572;SDS011;48626;51.678;5.806;2023-10-09T08:59:14;44.03;;;22.40;;
62572;SDS011;48626;51.678;5.806;2023-10-09T09:01:47;48.28;;;22.88;;
62572;SDS011;48626;51.678;5.806;2023-10-09T09:07:28;44.42;;;23.15;;
62572;SDS011;48626;51.678;5.806;2023-10-09T09:09:57;47.65;;;23.08;;
62572;SDS011;48626;51.678;5.806;2023-10-09T09:12:29;42.88;;;23.08;;
62572;SDS011;48626;51.678;5.806;2023-10-09T09:15:02;45.90;;;22.98;;
62572;SDS011;48626;51.678;5.806;2023-10-09T09:17:32;53.97;;;23.05;;
62572;SDS011;48626;51.678;5.806;2023-10-09T09:19:58;49.38;;;24.75;;
62572;SDS011;48626;51.678;5.806;2023-10-09T09:22:24;44.13;;;23.17;;
62572;SDS011;48626;51.678;5.806;2023-10-09T09:24:58;46.45;;;23.73;;
62572;SDS011;48626;51.678;5.806;2023-10-09T09:27:44;41.78;;;21.98;;
62572;SDS011;48626;51.678;5.806;2023-10-09T09:30:34;44.38;;;23.35;;
62572;SDS011;48626;51.678;5.806;2023-10-09T09:38:30;42.85;;;23.35;;
62572;SDS011;48626;51.678;5.806;2023-10-09T09:41:18;41.65;;;23.85;;
62572;SDS011;48626;51.678;5.806;2023-10-09T09:43:54;42.33;;;23.55;;
62572;SDS011;48626;51.678;5.806;2023-10-09T09:46:28;42.90;;;22.88;;
62572;SDS011;48626;51.678;5.806;2023-10-09T09:49:03;43.70;;;23.45;;
62572;SDS011;48626;51.678;5.806;2023-10-09T09:51:33;42.13;;;22.38;;
62572;SDS011;48626;51.678;5.806;2023-10-09T09:53:59;36.42;;;20.52;;
62572;SDS011;48626;51.678;5.806;2023-10-09T09:56:28;41.63;;;21.15;;
62572;SDS011;48626;51.678;5.806;2023-10-09T09:58:55;44.33;;;22.02;;
62572;SDS011;48626;51.678;5.806;2023-10-09T10:01:26;39.75;;;20.48;;
62572;SDS011;48626;51.678;5.806;2023-10-09T10:04:15;40.97;;;20.40;;
62572;SDS011;48626;51.678;5.806;2023-10-09T10:06:46;37.55;;;19.73;;
62572;SDS011;48626;51.678;5.806;2023-10-09T10:09:36;41.25;;;21.55;;
62572;SDS011;48626;51.678;5.806;2023-10-09T10:14:52;39.30;;;19.55;;
62572;SDS011;48626;51.678;5.806;2023-10-09T10:17:22;33.92;;;19.20;;
62572;SDS011;48626;51.678;5.806;2023-10-09T10:22:26;33.28;;;19.52;;
62572;SDS011;48626;51.678;5.806;2023-10-09T10:24:53;42.28;;;19.70;;
62572;SDS011;48626;51.678;5.806;2023-10-09T10:27:20;41.80;;;20.08;;
62572;SDS011;48626;51.678;5.806;2023-10-09T10:32:56;37.05;;;18.70;;
62572;SDS011;48626;51.678;5.806;2023-10-09T10:35:34;35.45;;;19.13;;
62572;SDS011;48626;51.678;5.806;2023-10-09T10:38:25;34.75;;;19.35;;
62572;SDS011;48626;51.678;5.806;2023-10-09T10:41:15;37.97;;;18.67;;
62572;SDS011;48626;51.678;5.806;2023-10-09T10:43:42;33.70;;;18.15;;
62572;SDS011;48626;51.678;5.806;2023-10-09T10:46:15;35.05;;;18.00;;
62572;SDS011;48626;51.678;5.806;2023-10-09T10:49:03;34.38;;;17.33;;
62572;SDS011;48626;51.678;5.806;2023-10-09T10:51:51;32.75;;;17.85;;
62572;SDS011;48626;51.678;5.806;2023-10-09T10:54:45;30.60;;;16.58;;
62572;SDS011;48626;51.678;5.806;2023-10-09T10:57:15;33.58;;;17.15;;
62572;SDS011;48626;51.678;5.806;2023-10-09T10:59:53;33.97;;;16.33;;
62572;SDS011;48626;51.678;5.806;2023-10-09T11:02:38;28.45;;;16.65;;
62572;SDS011;48626;51.678;5.806;2023-10-09T11:05:06;33.88;;;16.23;;
62572;SDS011;48626;51.678;5.806;2023-10-09T11:07:51;21.90;;;15.23;;
62572;SDS011;48626;51.678;5.806;2023-10-09T11:10:25;26.73;;;14.88;;
62572;SDS011;48626;51.678;5.806;2023-10-09T11:12:54;26.75;;;15.30;;
62572;SDS011;48626;51.678;5.806;2023-10-09T11:15:40;26.45;;;14.43;;
62572;SDS011;48626;51.678;5.806;2023-10-09T11:18:21;26.45;;;13.20;;
62572;SDS011;48626;51.678;5.806;2023-10-09T11:20:50;26.77;;;12.87;;
62572;SDS011;48626;51.678;5.806;2023-10-09T11:23:42;23.15;;;12.73;;
62572;SDS011;48626;51.678;5.806;2023-10-09T11:26:17;23.52;;;12.45;;
62572;SDS011;48626;51.678;5.806;2023-10-09T11:29:07;22.15;;;11.82;;
62572;SDS011;48626;51.678;5.806;2023-10-09T11:31:41;22.80;;;11.38;;
62572;SDS011;48626;51.678;5.806;2023-10-09T11:34:24;27.95;;;11.52;;
62572;SDS011;48626;51.678;5.806;2023-10-09T11:39:40;26.05;;;11.95;;
62572;SDS011;48626;51.678;5.806;2023-10-09T11:42:18;21.83;;;11.20;;
62572;SDS011;48626;51.678;5.806;2023-10-09T11:45:01;21.60;;;11.80;;
62572;SDS011;48626;51.678;5.806;2023-10-09T11:47:47;22.63;;;11.95;;
62572;SDS011;48626;51.678;5.806;2023-10-09T11:50:45;20.27;;;10.57;;
62572;SDS011;48626;51.678;5.806;2023-10-09T11:53:14;25.10;;;11.15;;
62572;SDS011;48626;51.678;5.806;2023-10-09T11:55:45;30.63;;;11.48;;
62572;SDS011;48626;51.678;5.806;2023-10-09T11:58:17;24.75;;;11.15;;
62572;SDS011;48626;51.678;5.806;2023-10-09T12:00:56;22.73;;;11.15;;
62572;SDS011;48626;51.678;5.806;2023-10-09T12:03:28;20.73;;;11.00;;
62572;SDS011;48626;51.678;5.806;2023-10-09T12:06:01;19.58;;;10.48;;
62572;SDS011;48626;51.678;5.806;2023-10-09T12:08:31;21.65;;;10.90;;
62572;SDS011;48626;51.678;5.806;2023-10-09T12:10:58;21.30;;;10.45;;
62572;SDS011;48626;51.678;5.806;2023-10-09T12:13:24;18.52;;;10.05;;
62572;SDS011;48626;51.678;5.806;2023-10-09T12:15:51;20.58;;;10.00;;
62572;SDS011;48626;51.678;5.806;2023-10-09T12:18:17;20.02;;;10.02;;
62572;SDS011;48626;51.678;5.806;2023-10-09T12:20:44;30.35;;;10.77;;
62572;SDS011;48626;51.678;5.806;2023-10-09T12:23:20;26.35;;;10.45;;
62572;SDS011;48626;51.678;5.806;2023-10-09T12:25:50;20.65;;;9.85;;
62572;SDS011;48626;51.678;5.806;2023-10-09T12:28:21;16.30;;;9.57;;
62572;SDS011;48626;51.678;5.806;2023-10-09T12:30:47;17.08;;;9.50;;
62572;SDS011;48626;51.678;5.806;2023-10-09T12:33:17;21.27;;;10.47;;
62572;SDS011;48626;51.678;5.806;2023-10-09T12:35:44;18.92;;;10.95;;
62572;SDS011;48626;51.678;5.806;2023-10-09T12:38:12;18.83;;;9.93;;
62572;SDS011;48626;51.678;5.806;2023-10-09T12:40:39;20.67;;;10.32;;
62572;SDS011;48626;51.678;5.806;2023-10-09T12:43:06;21.70;;;9.77;;
62572;SDS011;48626;51.678;5.806;2023-10-09T12:45:40;20.15;;;9.95;;
62572;SDS011;48626;51.678;5.806;2023-10-09T12:48:07;20.88;;;10.75;;
62572;SDS011;48626;51.678;5.806;2023-10-09T12:50:37;17.77;;;10.00;;
62572;SDS011;48626;51.678;5.806;2023-10-09T12:53:10;22.35;;;10.38;;
62572;SDS011;48626;51.678;5.806;2023-10-09T12:55:36;17.33;;;9.38;;
62572;SDS011;48626;51.678;5.806;2023-10-09T12:58:06;26.13;;;10.77;;
62572;SDS011;48626;51.678;5.806;2023-10-09T13:00:36;18.10;;;9.35;;
62572;SDS011;48626;51.678;5.806;2023-10-09T13:03:09;22.48;;;9.93;;
62572;SDS011;48626;51.678;5.806;2023-10-09T13:05:48;18.67;;;9.90;;
62572;SDS011;48626;51.678;5.806;2023-10-09T13:08:22;18.63;;;10.13;;
62572;SDS011;48626;51.678;5.806;2023-10-09T13:10:50;20.95;;;10.27;;
62572;SDS011;48626;51.678;5.806;2023-10-09T13:13:28;15.85;;;9.57;;
62572;SDS011;48626;51.678;5.806;2023-10-09T13:16:16;17.52;;;9.23;;
62572;SDS011;48626;51.678;5.806;2023-10-09T13:18:53;17.98;;;9.45;;
62572;SDS011;48626;51.678;5.806;2023-10-09T13:21:20;19.10;;;9.25;;
62572;SDS011;48626;51.678;5.806;2023-10-09T13:23:51;33.92;;;10.25;;
62572;SDS011;48626;51.678;5.806;2023-10-09T13:26:19;21.45;;;9.80;;
62572;SDS011;48626;51.678;5.806;2023-10-09T13:29:01;20.60;;;9.63;;
62572;SDS011;48626;51.678;5.806;2023-10-09T13:31:29;25.02;;;9.93;;
62572;SDS011;48626;51.678;5.806;2023-10-09T13:33:58;22.70;;;9.80;;
62572;SDS011;48626;51.678;5.806;2023-10-09T13:36:26;18.20;;;9.23;;
62572;SDS011;48626;51.678;5.806;2023-10-09T13:38:55;18.08;;;8.70;;
62572;SDS011;48626;51.678;5.806;2023-10-09T13:41:24;19.25;;;9.02;;
62572;SDS011;48626;51.678;5.806;2023-10-09T13:43:54;20.73;;;9.43;;
62572;SDS011;48626;51.678;5.806;2023-10-09T13:46:21;21.48;;;9.07;;
62572;SDS011;48626;51.678;5.806;2023-10-09T13:48:48;19.42;;;9.85;;
62572;SDS011;48626;51.678;5.806;2023-10-09T13:51:14;20.58;;;8.82;;
62572;SDS011;48626;51.678;5.806;2023-10-09T13:53:44;16.52;;;8.93;;
62572;SDS011;48626;51.678;5.806;2023-10-09T13:56:13;21.58;;;9.20;;
62572;SDS011;48626;51.678;5.806;2023-10-09T13:58:43;17.13;;;8.88;;
62572;SDS011;48626;51.678;5.806;2023-10-09T14:01:14;16.02;;;8.65;;
62572;SDS011;48626;51.678;5.806;2023-10-09T14:03:52;19.60;;;9.20;;
62572;SDS011;48626;51.678;5.806;2023-10-09T14:06:22;23.85;;;9.27;;
62572;SDS011;48626;51.678;5.806;2023-10-09T14:09:01;21.27;;;8.70;;
62572;SDS011;48626;51.678;5.806;2023-10-09T14:11:34;21.15;;;9.38;;
62572;SDS011;48626;51.678;5.806;2023-10-09T14:14:05;24.17;;;9.55;;
62572;SDS011;48626;51.678;5.806;2023-10-09T14:16:38;21.80;;;9.73;;
62572;SDS011;48626;51.678;5.806;2023-10-09T14:19:08;17.85;;;9.23;;
62572;SDS011;48626;51.678;5.806;2023-10-09T14:21:38;18.05;;;8.30;;
62572;SDS011;48626;51.678;5.806;2023-10-09T14:24:05;17.90;;;9.00;;
62572;SDS011;48626;51.678;5.806;2023-10-09T14:26:40;22.48;;;9.18;;
62572;SDS011;48626;51.678;5.806;2023-10-09T14:29:08;29.10;;;9.25;;
62572;SDS011;48626;51.678;5.806;2023-10-09T14:31:34;21.40;;;8.60;;
62572;SDS011;48626;51.678;5.806;2023-10-09T14:34:04;18.33;;;8.65;;
62572;SDS011;48626;51.678;5.806;2023-10-09T14:36:30;18.67;;;8.15;;
62572;SDS011;48626;51.678;5.806;2023-10-09T14:38:59;16.92;;;8.55;;
62572;SDS011;48626;51.678;5.806;2023-10-09T14:41:26;20.20;;;8.95;;
62572;SDS011;48626;51.678;5.806;2023-10-09T14:43:53;21.23;;;8.43;;
62572;SDS011;48626;51.678;5.806;2023-10-09T14:46:19;23.60;;;8.15;;
62572;SDS011;48626;51.678;5.806;2023-10-09T14:48:50;19.73;;;9.13;;
62572;SDS011;48626;51.678;5.806;2023-10-09T14:53:52;19.88;;;9.10;;
62572;SDS011;48626;51.678;5.806;2023-10-09T14:56:19;21.15;;;8.82;;
62572;SDS011;48626;51.678;5.806;2023-10-09T14:58:53;19.75;;;9.07;;
62572;SDS011;48626;51.678;5.806;2023-10-09T15:01:26;24.88;;;9.00;;
62572;SDS011;48626;51.678;5.806;2023-10-09T15:03:59;18.05;;;8.95;;
62572;SDS011;48626;51.678;5.806;2023-10-09T15:06:28;16.42;;;8.32;;
62572;SDS011;48626;51.678;5.806;2023-10-09T15:08:58;20.02;;;8.30;;
62572;SDS011;48626;51.678;5.806;2023-10-09T15:11:32;18.40;;;8.65;;
62572;SDS011;48626;51.678;5.806;2023-10-09T15:13:58;14.32;;;7.63;;
62572;SDS011;48626;51.678;5.806;2023-10-09T15:16:24;17.35;;;8.75;;
62572;SDS011;48626;51.678;5.806;2023-10-09T15:18:54;14.95;;;7.25;;
62572;SDS011;48626;51.678;5.806;2023-10-09T15:21:22;15.65;;;7.55;;
62572;SDS011;48626;51.678;5.806;2023-10-09T15:23:52;17.60;;;7.93;;
62572;SDS011;48626;51.678;5.806;2023-10-09T15:26:19;17.00;;;8.32;;
62572;SDS011;48626;51.678;5.806;2023-10-09T15:28:46;19.58;;;8.75;;
62572;SDS011;48626;51.678;5.806;2023-10-09T15:31:11;21.10;;;8.65;;
62572;SDS011;48626;51.678;5.806;2023-10-09T15:33:38;14.48;;;7.70;;
62572;SDS011;48626;51.678;5.806;2023-10-09T15:36:14;16.48;;;7.90;;
62572;SDS011;48626;51.678;5.806;2023-10-09T15:38:50;17.08;;;8.10;;
62572;SDS011;48626;51.678;5.806;2023-10-09T15:41:16;22.08;;;7.97;;
62572;SDS011;48626;51.678;5.806;2023-10-09T15:43:43;18.58;;;9.52;;